createdAt,value
2023-05-02T00:04:22.764Z,100448.19
2023-05-02T00:09:24.873Z,100449.31
2023-05-02T00:14:26.967Z,100453.16
2023-05-02T00:19:29.050Z,100447.66
2023-05-02T00:24:31.133Z,100437.00
2023-05-02T00:29:33.208Z,100453.41
2023-05-02T00:34:35.389Z,100457.50
2023-05-02T00:39:37.474Z,100460.75
2023-05-02T00:44:40.397Z,100450.69
2023-05-02T00:49:42.497Z,100456.19
2023-05-02T00:54:44.552Z,100448.22
2023-05-02T00:59:47.325Z,100444.97
2023-05-02T01:05:17.494Z,100457.81
2023-05-02T01:10:25.845Z,100452.09
2023-05-02T01:15:28.445Z,100469.84
2023-05-02T01:20:33.055Z,100452.66
2023-05-02T01:26:11.966Z,100456.47
2023-05-02T01:31:16.489Z,100440.13
2023-05-02T01:36:20.056Z,100451.84
2023-05-02T01:41:25.432Z,100450.22
2023-05-02T01:46:30.862Z,100445.28
2023-05-02T01:51:36.970Z,100447.13
2023-05-02T01:56:39.856Z,100440.59
2023-05-02T02:01:43.811Z,100448.75
2023-05-02T02:06:51.042Z,100424.44
2023-05-02T02:11:59.954Z,100432.06
2023-05-02T02:17:06.246Z,100429.00
2023-05-02T02:22:09.820Z,100431.44
2023-05-02T02:27:11.870Z,100409.25
2023-05-02T02:32:14.115Z,100422.28
2023-05-02T02:37:21.514Z,100421.97
2023-05-02T02:42:29.935Z,100424.69
2023-05-02T02:48:04.182Z,100426.16
2023-05-02T02:53:09.893Z,100418.47
2023-05-02T02:58:17.639Z,100419.19
2023-05-02T03:03:22.582Z,100416.44
2023-05-02T03:08:25.080Z,100417.16
2023-05-02T03:13:27.159Z,100424.75
2023-05-02T03:18:29.245Z,100435.06
2023-05-02T03:23:31.317Z,100428.16
2023-05-02T03:28:33.413Z,100428.25
2023-05-02T03:33:36.141Z,100430.72
2023-05-02T03:38:38.305Z,100443.75
2023-05-02T03:43:40.497Z,100431.50
2023-05-02T03:48:42.789Z,100440.16
2023-05-02T03:53:45.016Z,100449.12
2023-05-02T03:58:49.080Z,100441.91
2023-05-02T04:03:52.540Z,100449.88
2023-05-02T04:08:54.656Z,100451.47
2023-05-02T04:13:56.728Z,100460.22
2023-05-02T04:18:59.430Z,100458.28
2023-05-02T04:24:01.484Z,100445.25
2023-05-02T04:29:04.518Z,100441.53
2023-05-02T04:34:07.429Z,100468.50
2023-05-02T04:39:09.894Z,100484.16
2023-05-02T04:44:12.108Z,100481.56
2023-05-02T04:49:14.176Z,100469.34
2023-05-02T04:54:16.213Z,100485.47
2023-05-02T04:59:18.296Z,100478.78
2023-05-02T05:04:20.562Z,100482.94
2023-05-02T05:09:22.717Z,100481.97
2023-05-02T05:14:24.780Z,100493.91
2023-05-02T05:19:26.897Z,100488.78
2023-05-02T05:24:28.955Z,100488.34
2023-05-02T05:29:34.085Z,100488.69
2023-05-02T05:34:37.692Z,100491.53
2023-05-02T05:39:39.763Z,100507.44
2023-05-02T05:44:42.141Z,100516.03
2023-05-02T05:49:44.238Z,100528.41
2023-05-02T05:54:46.638Z,100533.69
2023-05-02T05:59:49.077Z,100537.81
2023-05-02T06:04:51.215Z,100516.31
2023-05-02T06:09:53.311Z,100523.97
2023-05-02T06:14:55.545Z,100530.84
2023-05-02T06:19:58.049Z,100527.56
2023-05-02T06:25:00.940Z,100537.69
2023-05-02T06:30:03.655Z,100531.38
2023-05-02T06:35:06.866Z,100536.53
2023-05-02T06:40:14.878Z,100536.47
2023-05-02T06:45:17.430Z,100528.75
2023-05-02T06:50:20.788Z,100540.09
2023-05-02T06:55:22.888Z,100532.41
2023-05-02T07:00:25.033Z,100540.97
2023-05-02T07:05:27.138Z,100539.13
2023-05-02T07:10:29.208Z,100546.56
2023-05-02T07:15:31.350Z,100531.63
2023-05-02T07:20:33.506Z,100537.88
2023-05-02T07:25:36.727Z,100539.22
2023-05-02T07:30:38.921Z,100542.50
2023-05-02T07:35:41.021Z,100535.16
2023-05-02T07:40:43.597Z,100543.19
2023-05-02T07:45:46.024Z,100534.75
2023-05-02T07:50:48.174Z,100538.66
2023-05-02T07:55:50.406Z,100562.41
2023-05-02T08:00:52.498Z,100563.91
2023-05-02T08:05:54.630Z,100542.88
2023-05-02T08:10:56.703Z,100537.63
2023-05-02T08:15:59.263Z,100539.63
2023-05-02T08:21:01.649Z,100547.44
2023-05-02T08:26:04.283Z,100542.16
2023-05-02T08:31:06.512Z,100557.75
2023-05-02T08:36:15.868Z,100559.94
2023-05-02T08:41:19.440Z,100549.25
2023-05-02T08:46:23.349Z,100551.56
2023-05-02T08:51:29.066Z,100542.44
2023-05-02T08:56:32.992Z,100540.62
2023-05-02T09:01:36.155Z,100527.56
2023-05-02T09:06:38.566Z,100538.41
2023-05-02T09:11:41.346Z,100541.22
2023-05-02T09:16:44.056Z,100546.13
2023-05-02T09:21:46.742Z,100525.47
2023-05-02T09:27:05.749Z,100521.59
2023-05-02T09:32:08.361Z,100517.34
2023-05-02T09:37:13.511Z,100542.69
2023-05-02T09:42:31.244Z,100535.09
2023-05-02T09:47:33.501Z,100526.53
2023-05-02T09:52:35.618Z,100512.50
2023-05-02T09:57:41.593Z,100520.72
2023-05-02T10:02:43.969Z,100518.13
2023-05-02T10:07:46.814Z,100510.06
2023-05-02T10:12:52.845Z,100514.06
2023-05-02T10:17:58.398Z,100500.34
2023-05-02T10:23:02.105Z,100516.09
2023-05-02T10:28:04.810Z,100499.44
2023-05-02T10:33:07.047Z,100490.91
2023-05-02T10:38:09.887Z,100493.88
2023-05-02T10:43:16.379Z,100499.62
2023-05-02T10:48:26.996Z,100494.87
2023-05-02T10:53:31.942Z,100507.31
2023-05-02T10:58:34.047Z,100502.06
2023-05-02T11:03:57.041Z,100493.53
2023-05-02T11:09:18.513Z,100491.94
2023-05-02T11:14:26.706Z,100485.81
2023-05-02T11:19:31.418Z,100490.78
2023-05-02T11:24:41.721Z,100483.44
2023-05-02T11:30:02.363Z,100477.13
2023-05-02T11:35:05.101Z,100478.06
2023-05-02T11:40:11.938Z,100458.91
2023-05-02T11:45:14.118Z,100454.34
2023-05-02T11:50:16.923Z,100464.37
2023-05-02T11:55:19.069Z,100450.47
2023-05-02T12:00:28.144Z,100458.88
2023-05-02T12:05:30.478Z,100441.41
2023-05-02T12:10:37.710Z,100442.28
2023-05-02T12:15:40.170Z,100444.94
2023-05-02T12:20:42.910Z,100439.66
2023-05-02T12:25:45.170Z,100433.56
2023-05-02T12:30:50.381Z,100439.88
2023-05-02T12:35:54.055Z,100435.78
2023-05-02T12:40:59.294Z,100426.38
2023-05-02T12:46:11.160Z,100431.16
2023-05-02T12:51:26.932Z,100406.84
2023-05-02T12:56:32.837Z,100423.03
2023-05-02T13:01:35.692Z,100421.22
2023-05-02T13:06:38.474Z,100417.78
2023-05-02T13:11:40.632Z,100396.16
2023-05-02T13:16:42.881Z,100406.41
2023-05-02T13:21:47.137Z,100408.75
2023-05-02T13:26:49.226Z,100386.06
2023-05-02T13:31:51.317Z,100402.28
2023-05-02T13:36:53.418Z,100390.59
2023-05-02T13:41:55.559Z,100385.00
2023-05-02T13:46:57.942Z,100375.91
2023-05-02T13:52:00.570Z,100369.09
2023-05-02T13:57:02.758Z,100377.56
2023-05-02T14:02:05.017Z,100388.59
2023-05-02T14:07:07.143Z,100390.16
2023-05-02T14:12:09.203Z,100389.22
2023-05-02T14:17:11.276Z,100385.56
2023-05-02T14:22:22.197Z,100388.88
2023-05-02T14:27:26.011Z,100380.19
2023-05-02T14:32:28.117Z,100393.88
2023-05-02T14:37:30.254Z,100382.13
2023-05-02T14:42:32.553Z,100370.91
2023-05-02T14:47:34.747Z,100383.94
2023-05-02T14:52:36.902Z,100380.56
2023-05-02T14:57:39.264Z,100398.62
2023-05-02T15:02:41.432Z,100386.47
2023-05-02T15:07:43.610Z,100376.75
2023-05-02T15:12:46.886Z,100385.59
2023-05-02T15:17:49.001Z,100374.25
2023-05-02T15:22:51.318Z,100380.13
2023-05-02T15:27:53.396Z,100389.25
2023-05-02T15:32:55.632Z,100376.25
2023-05-02T15:37:57.764Z,100368.56
2023-05-02T15:42:59.896Z,100365.31
2023-05-02T15:48:02.008Z,100367.72
2023-05-02T15:53:04.454Z,100381.72
2023-05-02T15:58:06.676Z,100370.00
2023-05-02T16:03:09.068Z,100378.41
2023-05-02T16:08:11.394Z,100367.34
2023-05-02T16:13:13.464Z,100373.53
2023-05-02T16:18:15.640Z,100366.37
2023-05-02T16:23:18.047Z,100366.88
2023-05-02T16:28:20.202Z,100374.72
2023-05-02T16:33:22.573Z,100359.31
2023-05-02T16:38:24.665Z,100365.00
2023-05-02T16:43:26.752Z,100380.78
2023-05-02T16:48:29.374Z,100375.28
2023-05-02T16:53:31.878Z,100362.31
2023-05-02T16:58:34.024Z,100362.00
2023-05-02T17:03:36.209Z,100369.81
2023-05-02T17:08:39.133Z,100368.22
2023-05-02T17:13:42.414Z,100377.59
2023-05-02T17:18:44.595Z,100381.84
2023-05-02T17:23:46.704Z,100395.44
2023-05-02T17:28:50.318Z,100421.75
2023-05-02T17:33:52.516Z,100426.19
2023-05-02T17:38:54.645Z,100419.25
2023-05-02T17:43:57.361Z,100413.28
2023-05-02T17:49:00.807Z,100413.69
2023-05-02T17:54:04.668Z,100432.59
2023-05-02T17:59:06.767Z,100428.47
2023-05-02T18:04:12.612Z,100417.19
2023-05-02T18:09:14.894Z,100429.66
2023-05-02T18:14:16.976Z,100438.25
2023-05-02T18:19:19.071Z,100461.56
2023-05-02T18:24:21.293Z,100467.47
2023-05-02T18:29:23.416Z,100469.12
2023-05-02T18:34:28.238Z,100475.09
2023-05-02T18:39:32.300Z,100476.59
2023-05-02T18:44:34.378Z,100474.50
2023-05-02T18:49:36.477Z,100492.78
2023-05-02T18:54:38.652Z,100512.78
2023-05-02T18:59:40.810Z,100505.34
2023-05-02T19:04:42.891Z,100507.25
2023-05-02T19:09:45.127Z,100510.31
2023-05-02T19:14:47.977Z,100511.00
2023-05-02T19:19:50.926Z,100540.59
2023-05-02T19:24:53.021Z,100546.13
2023-05-02T19:29:55.262Z,100553.16
2023-05-02T19:34:58.026Z,100583.59
2023-05-02T19:40:00.202Z,100581.44
2023-05-02T19:45:02.502Z,100582.84
2023-05-02T19:50:05.026Z,100576.22
2023-05-02T19:55:10.069Z,100571.44
2023-05-02T20:00:14.056Z,100574.44
2023-05-02T20:05:16.294Z,100553.25
